createdAt,value
2023-04-22T00:00:42.848Z,7.20
2023-04-22T00:03:10.163Z,7.75
2023-04-22T00:05:37.861Z,6.53
2023-04-22T00:08:04.788Z,7.97
2023-04-22T00:10:31.511Z,7.13
2023-04-22T00:12:58.420Z,5.78
2023-04-22T00:15:26.634Z,6.47
2023-04-22T00:17:53.802Z,6.35
2023-04-22T00:20:23.932Z,6.55
2023-04-22T00:22:50.638Z,7.38
2023-04-22T00:25:17.540Z,7.65
2023-04-22T00:27:45.066Z,8.23
2023-04-22T00:30:12.438Z,7.78
2023-04-22T00:32:39.322Z,7.05
2023-04-22T00:35:06.689Z,6.38
2023-04-22T00:37:33.561Z,5.88
2023-04-22T00:40:00.308Z,6.60
2023-04-22T00:42:27.263Z,5.57
2023-04-22T00:44:54.985Z,6.30
2023-04-22T00:47:24.380Z,5.40
2023-04-22T00:49:51.466Z,6.35
2023-04-22T00:52:18.126Z,7.68
2023-04-22T00:54:45.196Z,6.70
2023-04-22T00:57:12.196Z,7.32
2023-04-22T00:59:39.167Z,7.20
2023-04-22T01:02:07.078Z,7.43
2023-04-22T01:04:34.853Z,8.27
2023-04-22T01:07:02.115Z,7.32
2023-04-22T01:09:29.300Z,7.18
2023-04-22T01:11:56.496Z,7.15
2023-04-22T01:14:24.205Z,6.07
2023-04-22T01:16:53.842Z,7.10
2023-04-22T01:19:20.777Z,7.32
2023-04-22T01:21:50.898Z,6.82
2023-04-22T01:24:18.022Z,6.60
2023-04-22T01:26:45.366Z,6.35
2023-04-22T01:29:12.319Z,6.18
2023-04-22T01:31:39.626Z,5.45
2023-04-22T01:34:06.524Z,7.35
2023-04-22T01:36:33.891Z,6.75
2023-04-22T01:39:01.416Z,7.07
2023-04-22T01:41:28.267Z,7.40
2023-04-22T01:43:57.887Z,6.63
2023-04-22T01:46:24.628Z,7.18
2023-04-22T01:48:51.626Z,7.18
2023-04-22T01:51:20.692Z,7.25
2023-04-22T01:53:48.597Z,7.57
2023-04-22T01:56:15.517Z,7.63
2023-04-22T01:58:42.333Z,7.93
2023-04-22T02:01:10.590Z,7.05
2023-04-22T02:03:37.940Z,7.85
2023-04-22T02:06:05.398Z,7.72
2023-04-22T02:08:32.165Z,6.35
2023-04-22T02:11:00.838Z,5.47
2023-04-22T02:13:38.379Z,6.75
2023-04-22T02:16:05.475Z,6.72
2023-04-22T02:18:32.301Z,6.28
2023-04-22T02:20:59.136Z,7.28
2023-04-22T02:23:26.833Z,7.10
2023-04-22T02:25:55.859Z,7.38
2023-04-22T02:28:22.818Z,7.32
2023-04-22T02:30:49.496Z,7.10
2023-04-22T02:33:16.203Z,7.55
2023-04-22T02:35:43.010Z,6.57
2023-04-22T02:38:16.605Z,6.53
2023-04-22T02:40:43.391Z,6.88
2023-04-22T02:43:10.163Z,6.50
2023-04-22T02:45:36.831Z,5.97
2023-04-22T02:48:03.912Z,5.63
2023-04-22T02:50:30.644Z,6.28
2023-04-22T02:52:57.477Z,6.50
2023-04-22T02:55:24.885Z,5.57
2023-04-22T02:57:51.708Z,4.90
2023-04-22T03:00:18.485Z,4.80
2023-04-22T03:02:45.584Z,5.50
2023-04-22T03:05:14.659Z,6.57
2023-04-22T03:07:41.654Z,6.38
2023-04-22T03:10:09.278Z,9.02
2023-04-22T03:12:35.998Z,9.48
2023-04-22T03:15:03.507Z,10.02
2023-04-22T03:17:31.744Z,10.40
2023-04-22T03:20:00.820Z,11.02
2023-04-22T03:22:27.591Z,10.15
2023-04-22T03:24:57.545Z,10.80
2023-04-22T03:27:27.656Z,12.00
2023-04-22T03:29:54.820Z,12.43
2023-04-22T03:32:21.883Z,12.95
2023-04-22T03:34:57.418Z,13.20
2023-04-22T03:37:24.226Z,12.40
2023-04-22T03:39:51.061Z,11.10
2023-04-22T03:42:18.967Z,10.55
2023-04-22T03:44:46.276Z,11.13
2023-04-22T03:47:14.060Z,11.70
2023-04-22T03:49:46.632Z,10.23
2023-04-22T03:52:13.728Z,11.02
2023-04-22T03:54:46.388Z,11.85
2023-04-22T03:57:13.630Z,13.20
2023-04-22T03:59:40.684Z,12.07
2023-04-22T04:02:09.106Z,13.23
2023-04-22T04:04:36.932Z,12.95
2023-04-22T04:07:07.552Z,13.73
2023-04-22T04:09:34.307Z,13.88
2023-04-22T04:12:01.129Z,13.57
2023-04-22T04:14:31.813Z,14.90
2023-04-22T04:16:58.867Z,14.90
2023-04-22T04:19:31.718Z,14.20
2023-04-22T04:21:58.534Z,15.57
2023-04-22T04:24:27.231Z,14.98
2023-04-22T04:27:00.656Z,13.98
2023-04-22T04:29:32.374Z,13.67
2023-04-22T04:32:19.996Z,14.05
2023-04-22T04:34:46.698Z,14.00
2023-04-22T04:37:17.088Z,12.82
2023-04-22T04:40:16.065Z,14.75
2023-04-22T04:42:48.813Z,13.57
2023-04-22T04:45:23.011Z,15.00
2023-04-22T04:47:50.797Z,13.38
2023-04-22T04:50:23.005Z,13.95
2023-04-22T04:52:51.626Z,14.25
2023-04-22T04:55:24.052Z,14.68
2023-04-22T04:57:51.149Z,13.77
2023-04-22T05:00:18.498Z,14.85
2023-04-22T05:02:46.378Z,14.32
2023-04-22T05:05:13.287Z,14.07
2023-04-22T05:07:42.672Z,14.70
2023-04-22T05:10:11.363Z,14.40
2023-04-22T05:12:38.367Z,15.00
2023-04-22T05:15:08.291Z,13.27
2023-04-22T05:17:36.727Z,13.40
2023-04-22T05:20:04.460Z,14.23
2023-04-22T05:22:31.220Z,14.48
2023-04-22T05:24:58.417Z,14.57
2023-04-22T05:27:25.246Z,13.60
2023-04-22T05:29:51.936Z,13.45
2023-04-22T05:32:23.812Z,14.20
2023-04-22T05:34:51.150Z,13.88
2023-04-22T05:37:18.015Z,14.10
2023-04-22T05:39:44.847Z,13.57
2023-04-22T05:42:11.846Z,13.35
2023-04-22T05:44:39.399Z,13.25
2023-04-22T05:47:06.655Z,11.68
2023-04-22T05:49:33.408Z,12.52
2023-04-22T05:52:16.570Z,12.48
2023-04-22T05:54:55.126Z,12.00
2023-04-22T05:57:22.603Z,11.30
2023-04-22T05:59:49.550Z,11.80
2023-04-22T06:02:19.203Z,11.38
2023-04-22T06:04:46.327Z,11.85
2023-04-22T06:07:13.719Z,10.88
2023-04-22T06:09:40.717Z,11.63
2023-04-22T06:12:08.221Z,11.85
2023-04-22T06:14:35.946Z,10.90
2023-04-22T06:17:03.168Z,11.48
2023-04-22T06:19:30.236Z,11.57
2023-04-22T06:21:57.051Z,11.38
2023-04-22T06:24:24.027Z,12.10
2023-04-22T06:26:50.768Z,10.93
2023-04-22T06:29:17.762Z,12.00
2023-04-22T06:31:44.619Z,11.93
2023-04-22T06:34:11.411Z,12.20
2023-04-22T06:36:38.961Z,13.65
2023-04-22T06:39:09.658Z,12.88
2023-04-22T06:41:44.289Z,13.07
2023-04-22T06:44:26.527Z,13.30
2023-04-22T06:47:11.727Z,13.50
2023-04-22T06:49:46.294Z,13.98
2023-04-22T06:52:39.188Z,13.50
2023-04-22T06:55:06.489Z,13.30
2023-04-22T06:57:33.262Z,13.50
2023-04-22T07:00:00.090Z,13.05
2023-04-22T07:02:27.504Z,13.68
2023-04-22T07:04:54.220Z,12.88
2023-04-22T07:07:21.095Z,12.77
2023-04-22T07:09:48.678Z,13.10
2023-04-22T07:12:15.680Z,12.55
2023-04-22T07:14:46.381Z,12.13
2023-04-22T07:17:13.190Z,11.90
2023-04-22T07:19:40.191Z,12.20
2023-04-22T07:22:07.344Z,13.07
2023-04-22T07:24:34.115Z,13.15
2023-04-22T07:27:02.279Z,13.07
2023-04-22T07:29:28.979Z,13.35
2023-04-22T07:31:55.678Z,13.23
2023-04-22T07:34:22.341Z,12.82
2023-04-22T07:36:53.487Z,12.18
2023-04-22T07:39:20.238Z,13.10
2023-04-22T07:41:47.187Z,13.30
2023-04-22T07:44:17.325Z,13.10
2023-04-22T07:46:44.219Z,12.68
2023-04-22T07:49:14.640Z,13.48
2023-04-22T07:51:42.387Z,11.57
2023-04-22T07:54:09.054Z,12.18
2023-04-22T07:56:35.718Z,13.10
2023-04-22T07:59:03.087Z,13.35
2023-04-22T08:01:29.859Z,12.85
2023-04-22T08:03:57.182Z,13.27
2023-04-22T08:06:24.253Z,12.10
2023-04-22T08:08:50.912Z,11.05
2023-04-22T08:11:18.222Z,11.23
2023-04-22T08:13:44.965Z,11.65
2023-04-22T08:16:12.750Z,11.13
2023-04-22T08:18:39.683Z,10.13
2023-04-22T08:21:06.795Z,10.85
2023-04-22T08:23:33.497Z,9.88
2023-04-22T08:26:00.252Z,9.80
2023-04-22T08:28:26.988Z,9.55
2023-04-22T08:30:53.707Z,9.02
2023-04-22T08:33:20.443Z,9.25
2023-04-22T08:35:48.627Z,8.50
2023-04-22T08:38:15.617Z,8.40
2023-04-22T08:40:42.826Z,8.18
2023-04-22T08:43:11.036Z,7.43
2023-04-22T08:45:41.125Z,7.28
2023-04-22T08:48:09.869Z,7.72
2023-04-22T08:50:41.237Z,7.05
2023-04-22T08:53:08.136Z,6.57
2023-04-22T08:55:36.209Z,7.35
2023-04-22T08:58:06.025Z,7.95
2023-04-22T09:00:34.466Z,6.88
2023-04-22T09:03:05.748Z,6.68
2023-04-22T09:05:34.054Z,5.28
2023-04-22T09:08:02.178Z,7.13
2023-04-22T09:10:30.704Z,6.63
2023-04-22T09:12:58.719Z,7.93
2023-04-22T09:15:25.738Z,7.32
2023-04-22T09:17:52.796Z,6.80
2023-04-22T09:20:25.676Z,6.35
2023-04-22T09:22:53.250Z,6.68
2023-04-22T09:25:22.220Z,7.22
2023-04-22T09:27:53.156Z,7.18
2023-04-22T09:30:31.694Z,7.57
2023-04-22T09:33:01.183Z,7.40
2023-04-22T09:35:33.077Z,6.60
2023-04-22T09:38:01.679Z,6.47
2023-04-22T09:40:30.003Z,6.20
2023-04-22T09:42:58.603Z,6.10
2023-04-22T09:45:35.021Z,6.95
2023-04-22T09:48:18.671Z,6.80
2023-04-22T09:50:47.713Z,5.95
2023-04-22T09:53:16.821Z,6.70
2023-04-22T09:55:47.502Z,6.88
2023-04-22T09:58:16.379Z,7.13
2023-04-22T10:00:48.908Z,7.13
2023-04-22T10:03:16.485Z,6.25
2023-04-22T10:05:45.655Z,7.53
2023-04-22T10:08:14.194Z,6.90
2023-04-22T10:10:41.876Z,6.40
2023-04-22T10:13:09.238Z,7.50
2023-04-22T10:15:45.806Z,5.80
2023-04-22T10:18:16.630Z,6.47
2023-04-22T10:20:45.762Z,6.85
2023-04-22T10:23:14.997Z,7.38
2023-04-22T10:25:41.984Z,7.03
2023-04-22T10:28:10.547Z,6.47
2023-04-22T10:30:39.638Z,7.18
2023-04-22T10:33:21.850Z,6.38
2023-04-22T10:36:08.864Z,6.78
2023-04-22T10:39:02.263Z,6.53
2023-04-22T10:41:34.759Z,5.88
2023-04-22T10:46:32.746Z,6.68
2023-04-22T10:49:06.874Z,6.15
2023-04-22T10:51:44.610Z,6.22
2023-04-22T10:54:41.028Z,5.50
2023-04-22T10:57:08.728Z,5.38
2023-04-22T10:59:51.568Z,5.53
2023-04-22T11:02:19.372Z,6.47
2023-04-22T11:04:46.686Z,6.55
2023-04-22T11:07:16.954Z,5.75
2023-04-22T11:09:45.950Z,7.10
2023-04-22T11:12:41.834Z,5.47
2023-04-22T11:15:09.808Z,6.80
2023-04-22T11:17:42.042Z,6.72
2023-04-22T11:20:10.198Z,6.05
2023-04-22T11:22:38.419Z,6.70
2023-04-22T11:25:06.366Z,6.18
2023-04-22T11:27:33.238Z,5.88
2023-04-22T11:30:06.002Z,6.07
2023-04-22T11:32:34.678Z,6.05
2023-04-22T11:35:06.250Z,5.45
2023-04-22T11:37:44.703Z,5.80
2023-04-22T11:40:28.943Z,6.13
2023-04-22T11:42:58.868Z,5.30
2023-04-22T11:45:26.466Z,6.20
2023-04-22T11:47:53.679Z,5.97
2023-04-22T11:50:29.252Z,6.25
2023-04-22T11:52:58.499Z,6.40
2023-04-22T11:55:32.823Z,7.97
2023-04-22T11:58:03.020Z,7.03
2023-04-22T12:00:46.012Z,6.95
2023-04-22T12:03:18.730Z,6.95
2023-04-22T12:05:47.879Z,6.95
2023-04-22T12:08:19.655Z,7.05
2023-04-22T12:10:58.022Z,6.70
2023-04-22T12:13:38.365Z,6.85
2023-04-22T12:16:14.818Z,6.45
2023-04-22T12:18:48.057Z,6.25
2023-04-22T12:21:17.163Z,6.57
2023-04-22T12:23:50.886Z,6.43
2023-04-22T12:26:19.842Z,6.13
2023-04-22T12:28:46.994Z,7.30
2023-04-22T12:31:15.407Z,7.55
2023-04-22T12:33:43.086Z,7.32
2023-04-22T12:36:10.601Z,6.30
2023-04-22T12:38:37.892Z,6.05
2023-04-22T12:41:06.357Z,6.00
2023-04-22T12:43:36.432Z,6.50
2023-04-22T12:46:04.557Z,5.35
2023-04-22T12:48:31.669Z,5.45
2023-04-22T12:50:59.204Z,5.43
2023-04-22T12:53:28.232Z,5.35
2023-04-22T12:55:55.786Z,4.93
2023-04-22T12:58:22.596Z,4.88
2023-04-22T13:00:49.284Z,4.63
2023-04-22T13:03:16.419Z,4.45
2023-04-22T13:05:45.906Z,3.92
2023-04-22T13:08:12.717Z,4.03
2023-04-22T13:10:39.401Z,4.82
2023-04-22T13:13:16.885Z,4.47
2023-04-22T13:15:47.197Z,3.70
2023-04-22T13:18:15.344Z,3.80
2023-04-22T13:20:42.595Z,3.53
2023-04-22T13:23:10.426Z,3.63
2023-04-22T13:25:41.811Z,4.20
2023-04-22T13:28:11.273Z,3.67
2023-04-22T13:30:40.510Z,3.55
2023-04-22T13:33:07.300Z,3.85
2023-04-22T13:35:34.058Z,4.28
2023-04-22T13:38:01.357Z,3.92
2023-04-22T13:40:28.505Z,3.90
2023-04-22T13:42:55.603Z,4.13
2023-04-22T13:45:22.466Z,3.88
2023-04-22T13:47:49.329Z,4.97
2023-04-22T13:50:16.531Z,4.85
2023-04-22T13:52:43.302Z,4.03
2023-04-22T13:55:10.352Z,3.97
2023-04-22T13:57:37.078Z,4.35
2023-04-22T14:00:04.909Z,4.38
2023-04-22T14:02:38.670Z,5.35
2023-04-22T14:05:07.650Z,5.28
2023-04-22T14:07:34.311Z,5.32
2023-04-22T14:10:01.094Z,5.63
2023-04-22T14:12:27.816Z,5.13
2023-04-22T14:14:55.172Z,4.88
2023-04-22T14:17:22.845Z,5.13
2023-04-22T14:19:49.849Z,5.07
2023-04-22T14:22:16.573Z,5.35
2023-04-22T14:24:43.236Z,5.35
2023-04-22T14:27:11.919Z,5.57
2023-04-22T14:29:39.471Z,5.43
2023-04-22T14:32:09.610Z,5.75
2023-04-22T14:34:36.319Z,5.35
2023-04-22T14:37:02.963Z,5.90
2023-04-22T14:39:29.727Z,5.60
2023-04-22T14:41:57.881Z,5.47
2023-04-22T14:44:24.574Z,6.00
2023-04-22T14:46:51.325Z,5.93
2023-04-22T14:49:18.050Z,6.45
2023-04-22T14:51:44.768Z,6.32
2023-04-22T14:54:11.930Z,6.10
2023-04-22T14:56:38.943Z,5.75
2023-04-22T14:59:09.815Z,5.70
2023-04-22T15:01:41.815Z,5.90
2023-04-22T15:04:08.815Z,6.00
2023-04-22T15:06:35.567Z,6.53
2023-04-22T15:09:02.343Z,7.30
2023-04-22T15:11:29.033Z,8.30
2023-04-22T15:13:55.754Z,8.40
2023-04-22T15:16:22.845Z,9.38
2023-04-22T15:18:49.837Z,9.10
2023-04-22T15:21:16.773Z,8.80
2023-04-22T15:23:43.581Z,9.35
2023-04-22T15:26:10.309Z,9.50
2023-04-22T15:28:37.033Z,9.63
2023-04-22T15:31:03.933Z,10.13
2023-04-22T15:33:31.275Z,9.18
2023-04-22T15:35:58.068Z,9.45
2023-04-22T15:38:24.912Z,11.07
2023-04-22T15:40:51.731Z,10.50
2023-04-22T15:43:18.687Z,10.73
2023-04-22T15:45:45.421Z,10.80
2023-04-22T15:48:12.337Z,12.05
2023-04-22T15:50:40.678Z,13.20
2023-04-22T15:53:07.579Z,13.18
2023-04-22T15:55:34.352Z,13.80
2023-04-22T15:58:01.133Z,14.30
2023-04-22T16:00:27.851Z,15.52
2023-04-22T16:02:55.745Z,15.77
2023-04-22T16:05:24.623Z,16.52
2023-04-22T16:07:53.036Z,17.05
2023-04-22T16:10:20.768Z,16.55
2023-04-22T16:12:47.586Z,17.17
2023-04-22T16:15:14.345Z,17.00
2023-04-22T16:17:41.524Z,17.45
2023-04-22T16:20:09.432Z,18.95
2023-04-22T16:22:36.952Z,18.73
2023-04-22T16:25:04.379Z,20.23
2023-04-22T16:27:31.717Z,18.75
2023-04-22T16:29:58.356Z,18.20
2023-04-22T16:32:25.180Z,19.30
2023-04-22T16:34:51.953Z,20.15
2023-04-22T16:37:18.774Z,19.00
2023-04-22T16:39:46.167Z,20.42
2023-04-22T16:42:12.933Z,18.65
2023-04-22T16:44:39.581Z,18.42
2023-04-22T16:47:06.250Z,18.85
2023-04-22T16:49:32.983Z,19.17
2023-04-22T16:52:00.055Z,19.40
2023-04-22T16:54:26.729Z,18.65
2023-04-22T16:56:53.451Z,19.20
2023-04-22T16:59:20.272Z,18.92
2023-04-22T17:01:47.065Z,18.58
2023-04-22T17:04:13.890Z,18.85
2023-04-22T17:06:40.984Z,18.67
2023-04-22T17:09:09.128Z,19.02
2023-04-22T17:11:35.854Z,19.92
2023-04-22T17:14:02.783Z,18.92
2023-04-22T17:16:29.636Z,19.30
2023-04-22T17:18:56.326Z,19.67
2023-04-22T17:21:23.342Z,19.40
2023-04-22T17:23:50.564Z,17.52
2023-04-22T17:26:17.369Z,20.02
2023-04-22T17:28:44.311Z,20.33
2023-04-22T17:31:11.054Z,19.08
2023-04-22T17:33:37.808Z,19.92
2023-04-22T17:36:05.070Z,19.02
2023-04-22T17:38:32.188Z,18.20
2023-04-22T17:40:59.162Z,18.58
2023-04-22T17:43:26.165Z,19.08
2023-04-22T17:45:52.964Z,18.92
2023-04-22T17:48:19.654Z,17.42
2023-04-22T17:50:46.410Z,18.67
2023-04-22T17:53:13.634Z,15.68
2023-04-22T17:55:40.840Z,16.40
2023-04-22T17:58:07.610Z,15.50
2023-04-22T18:00:35.674Z,16.13
2023-04-22T18:03:04.145Z,16.23
2023-04-22T18:05:31.244Z,16.27
2023-04-22T18:08:03.968Z,14.93
2023-04-22T18:10:31.166Z,14.75
2023-04-22T18:12:57.917Z,13.98
2023-04-22T18:15:24.817Z,15.57
2023-04-22T18:17:51.949Z,13.82
2023-04-22T18:20:19.751Z,14.10
2023-04-22T18:22:48.730Z,13.88
2023-04-22T18:25:16.291Z,11.48
2023-04-22T18:27:43.181Z,12.32
2023-04-22T18:30:10.440Z,11.45
2023-04-22T18:32:37.673Z,11.13
2023-04-22T18:35:04.807Z,10.18
2023-04-22T18:37:34.404Z,9.50
2023-04-22T18:40:02.080Z,8.98
2023-04-22T18:42:29.207Z,9.13
2023-04-22T18:44:55.957Z,9.25
2023-04-22T18:47:22.794Z,8.75
2023-04-22T18:49:49.853Z,8.15
2023-04-22T18:52:17.178Z,7.32
2023-04-22T18:54:44.230Z,7.13
2023-04-22T18:57:11.135Z,7.10
2023-04-22T18:59:37.913Z,6.88
2023-04-22T19:02:05.002Z,7.13
2023-04-22T19:04:31.961Z,5.65
2023-04-22T19:06:59.147Z,6.88
2023-04-22T19:09:26.078Z,6.40
2023-04-22T19:11:52.955Z,6.10
2023-04-22T19:14:19.785Z,9.90
2023-04-22T19:16:46.599Z,15.20
2023-04-22T19:19:13.446Z,15.95
2023-04-22T19:21:40.427Z,17.10
2023-04-22T19:24:07.766Z,16.27
2023-04-22T19:26:34.740Z,17.65
2023-04-22T19:29:01.614Z,17.55
2023-04-22T19:31:29.203Z,19.02
2023-04-22T19:33:56.172Z,19.58
2023-04-22T19:36:23.160Z,18.83
2023-04-22T19:38:49.972Z,20.65
2023-04-22T19:41:16.810Z,19.75
2023-04-22T19:43:43.629Z,20.38
2023-04-22T19:46:10.526Z,20.05
2023-04-22T19:48:37.872Z,19.17
2023-04-22T19:51:06.180Z,20.00
2023-04-22T19:53:33.656Z,19.60
2023-04-22T19:56:00.798Z,18.20
2023-04-22T19:58:28.494Z,16.65
2023-04-22T20:00:55.892Z,16.40
2023-04-22T20:03:23.358Z,16.40
2023-04-22T20:05:50.604Z,15.93
2023-04-22T20:08:19.821Z,16.45
2023-04-22T20:10:49.483Z,16.02
2023-04-22T20:13:17.234Z,14.70
2023-04-22T20:15:44.503Z,13.90
2023-04-22T20:18:11.751Z,13.18
2023-04-22T20:20:40.096Z,14.18
2023-04-22T20:23:12.648Z,14.13
2023-04-22T20:28:10.679Z,15.82
2023-04-22T20:30:37.578Z,17.23
2023-04-22T20:33:04.754Z,17.48
2023-04-22T20:35:32.114Z,17.95
2023-04-22T20:38:00.517Z,18.98
2023-04-22T20:40:28.913Z,19.08
2023-04-22T20:42:57.885Z,21.30
2023-04-22T20:45:24.816Z,20.73
2023-04-22T20:47:52.079Z,20.05
2023-04-22T20:50:20.598Z,22.60
2023-04-22T20:52:48.933Z,21.58
2023-04-22T20:55:16.944Z,23.88
2023-04-22T20:57:44.227Z,20.90
2023-04-22T21:00:11.603Z,20.10
2023-04-22T21:02:39.198Z,17.30
2023-04-22T21:05:06.667Z,17.80
2023-04-22T21:07:35.340Z,16.45
2023-04-22T21:10:02.383Z,15.95
2023-04-22T21:12:29.566Z,16.42
2023-04-22T21:14:56.636Z,17.00
2023-04-22T21:17:29.625Z,14.93
2023-04-22T21:19:58.051Z,17.60
2023-04-22T21:22:25.186Z,18.77
2023-04-22T21:24:53.723Z,19.55
2023-04-22T21:27:21.763Z,20.27
2023-04-22T21:29:49.449Z,23.02
2023-04-22T21:32:17.423Z,22.80
2023-04-22T21:34:44.909Z,22.35
2023-04-22T21:37:12.245Z,24.42
2023-04-22T21:39:40.165Z,22.67
2023-04-22T21:42:10.471Z,22.38
2023-04-22T21:44:37.759Z,23.73
2023-04-22T21:47:06.251Z,22.92
2023-04-22T21:49:32.938Z,23.92
2023-04-22T21:51:59.792Z,21.88
2023-04-22T21:54:26.573Z,23.73
2023-04-22T21:56:53.571Z,23.42
2023-04-22T21:59:20.389Z,23.65
2023-04-22T22:01:47.144Z,23.40
2023-04-22T22:04:15.999Z,22.42
2023-04-22T22:06:44.832Z,22.85
2023-04-22T22:09:12.512Z,22.05
2023-04-22T22:11:39.498Z,22.10
2023-04-22T22:14:06.194Z,21.67
2023-04-22T22:16:33.477Z,21.15
2023-04-22T22:19:02.665Z,22.20
2023-04-22T22:21:29.627Z,23.90
2023-04-22T22:23:57.418Z,22.67
2023-04-22T22:26:24.507Z,22.42
2023-04-22T22:28:51.195Z,23.52
2023-04-22T22:31:17.940Z,21.33
2023-04-22T22:33:44.991Z,23.08
2023-04-22T22:36:12.464Z,24.10
2023-04-22T22:38:42.023Z,22.42
2023-04-22T22:41:08.977Z,23.42
2023-04-22T22:43:38.392Z,22.55
2023-04-22T22:46:05.265Z,23.73
2023-04-22T22:48:32.607Z,23.75
2023-04-22T22:50:59.355Z,23.90
2023-04-22T22:53:26.231Z,25.35
2023-04-22T22:55:52.902Z,23.63
2023-04-22T22:58:19.647Z,24.60
2023-04-22T23:00:46.355Z,22.67
2023-04-22T23:03:13.199Z,26.40
2023-04-22T23:05:40.561Z,25.15
2023-04-22T23:08:07.258Z,25.52
2023-04-22T23:10:33.952Z,26.20
2023-04-22T23:13:01.069Z,25.92
2023-04-22T23:15:28.052Z,25.75
2023-04-22T23:17:54.857Z,26.33
2023-04-22T23:20:23.601Z,27.00
2023-04-22T23:22:51.283Z,25.95
2023-04-22T23:25:18.213Z,27.08
2023-04-22T23:27:45.355Z,28.10
2023-04-22T23:30:12.545Z,27.65
2023-04-22T23:32:40.391Z,28.05
2023-04-22T23:35:08.579Z,28.08
2023-04-22T23:37:37.661Z,26.77
2023-04-22T23:40:04.882Z,26.55
2023-04-22T23:42:31.537Z,25.95
2023-04-22T23:44:58.240Z,25.80
2023-04-22T23:47:25.579Z,26.52
2023-04-22T23:49:52.316Z,26.42
2023-04-22T23:52:20.625Z,24.60
2023-04-22T23:54:47.839Z,23.67
2023-04-22T23:57:15.461Z,25.00
2023-04-22T23:59:42.663Z,25.08
